createdAt,value
2022-10-09T00:02:19.568Z,4.32
2022-10-09T00:04:46.114Z,4.78
2022-10-09T00:07:16.136Z,3.85
2022-10-09T00:09:42.597Z,4.40
2022-10-09T00:12:13.047Z,4.15
2022-10-09T00:14:39.580Z,3.85
2022-10-09T00:17:06.214Z,4.55
2022-10-09T00:19:32.757Z,4.50
2022-10-09T00:21:59.248Z,4.90
2022-10-09T00:24:25.706Z,4.45
2022-10-09T00:26:52.168Z,4.70
2022-10-09T00:29:18.642Z,4.78
2022-10-09T00:31:45.188Z,5.07
2022-10-09T00:34:11.678Z,4.82
2022-10-09T00:36:38.159Z,5.20
2022-10-09T00:39:04.646Z,4.50
2022-10-09T00:41:31.750Z,4.65
2022-10-09T00:46:46.304Z,4.70
2022-10-09T00:49:26.186Z,5.40
2022-10-09T00:51:53.720Z,4.80
2022-10-09T00:54:23.004Z,4.88
2022-10-09T00:56:50.005Z,4.60
2022-10-09T00:59:17.228Z,4.95
2022-10-09T01:01:45.157Z,4.40
2022-10-09T01:04:11.909Z,4.30
2022-10-09T01:06:44.416Z,4.35
2022-10-09T01:09:18.269Z,4.35
2022-10-09T01:23:23.837Z,3.92
2022-10-09T01:29:08.322Z,4.38
2022-10-09T01:31:42.581Z,3.88
2022-10-09T01:34:10.626Z,4.93
2022-10-09T01:39:21.437Z,5.05
2022-10-09T01:41:48.833Z,4.50
2022-10-09T01:44:20.518Z,4.72
2022-10-09T01:46:47.445Z,5.47
2022-10-09T01:49:38.597Z,4.88
2022-10-09T01:52:20.565Z,4.40
2022-10-09T01:54:59.135Z,4.55
2022-10-09T02:00:26.018Z,4.20
2022-10-09T02:02:53.624Z,4.72
2022-10-09T02:05:23.900Z,5.20
2022-10-09T02:07:50.672Z,4.72
2022-10-09T02:10:18.410Z,5.13
2022-10-09T02:12:52.337Z,6.28
2022-10-09T02:15:20.598Z,5.70
2022-10-09T02:17:49.331Z,6.05
2022-10-09T02:20:17.235Z,5.47
2022-10-09T02:22:44.078Z,5.72
2022-10-09T02:25:10.747Z,5.18
2022-10-09T02:27:37.328Z,5.65
2022-10-09T02:30:06.579Z,5.25
2022-10-09T02:32:33.159Z,5.57
2022-10-09T02:34:59.677Z,6.00
2022-10-09T02:37:26.139Z,5.97
2022-10-09T02:39:52.616Z,6.10
2022-10-09T02:42:19.144Z,6.30
2022-10-09T02:44:45.615Z,6.28
2022-10-09T02:47:12.111Z,5.90
2022-10-09T02:49:38.645Z,6.57
2022-10-09T02:52:13.416Z,6.00
2022-10-09T02:54:39.879Z,6.35
2022-10-09T02:57:06.526Z,6.25
2022-10-09T03:02:13.989Z,5.80
2022-10-09T03:04:40.644Z,6.00
2022-10-09T03:07:07.396Z,6.00
2022-10-09T03:09:34.110Z,6.22
2022-10-09T03:12:00.807Z,5.47
2022-10-09T03:14:27.269Z,6.20
2022-10-09T03:16:53.740Z,6.13
2022-10-09T03:19:20.422Z,5.85
2022-10-09T03:24:27.798Z,6.10
2022-10-09T03:26:54.345Z,5.68
2022-10-09T03:29:20.892Z,6.30
2022-10-09T03:31:52.406Z,6.13
2022-10-09T03:39:41.583Z,5.78
2022-10-09T03:42:08.134Z,6.55
2022-10-09T03:44:34.663Z,6.78
2022-10-09T03:47:01.186Z,5.50
2022-10-09T03:52:08.073Z,5.97
2022-10-09T03:54:34.566Z,6.25
2022-10-09T03:57:01.300Z,5.97
2022-10-09T03:59:27.847Z,5.88
2022-10-09T04:01:54.423Z,6.53
2022-10-09T04:04:20.929Z,5.88
2022-10-09T04:09:27.017Z,6.90
2022-10-09T04:14:34.319Z,7.07
2022-10-09T04:17:03.219Z,8.20
2022-10-09T04:19:33.686Z,6.55
2022-10-09T04:22:11.470Z,7.55
2022-10-09T04:24:38.098Z,8.00
2022-10-09T04:27:12.678Z,7.32
2022-10-09T04:29:39.493Z,8.00
2022-10-09T04:34:49.220Z,7.97
2022-10-09T04:37:15.734Z,8.02
2022-10-09T04:39:42.773Z,7.88
2022-10-09T04:42:09.269Z,8.00
2022-10-09T04:44:35.734Z,7.28
2022-10-09T04:47:08.149Z,8.13
2022-10-09T04:49:37.058Z,8.18
2022-10-09T04:52:06.786Z,6.95
2022-10-09T04:54:33.349Z,8.05
2022-10-09T04:56:59.913Z,7.40
2022-10-09T04:59:26.379Z,6.60
2022-10-09T05:01:52.897Z,7.00
2022-10-09T05:04:19.912Z,7.15
2022-10-09T05:06:46.451Z,7.35
2022-10-09T05:09:12.944Z,7.95
2022-10-09T05:14:20.029Z,7.20
2022-10-09T05:17:11.745Z,8.07
2022-10-09T05:19:33.520Z,7.60
2022-10-09T05:22:00.816Z,7.63
2022-10-09T05:24:28.151Z,7.38
2022-10-09T05:26:54.767Z,8.45
2022-10-09T05:29:21.504Z,9.70
2022-10-09T05:31:49.682Z,7.55
2022-10-09T05:34:16.453Z,9.05
2022-10-09T05:36:42.984Z,9.85
2022-10-09T05:39:09.615Z,9.77
2022-10-09T05:41:36.096Z,8.65
2022-10-09T05:44:03.535Z,7.70
2022-10-09T05:46:30.516Z,9.27
2022-10-09T05:49:00.613Z,8.60
2022-10-09T05:51:29.959Z,8.27
2022-10-09T05:53:57.095Z,8.85
2022-10-09T05:56:35.081Z,9.05
2022-10-09T05:59:06.299Z,7.68
2022-10-09T06:01:35.153Z,8.55
2022-10-09T06:04:02.502Z,8.65
2022-10-09T06:09:12.725Z,8.52
2022-10-09T06:11:40.308Z,9.60
2022-10-09T06:16:50.291Z,8.30
2022-10-09T06:19:26.323Z,8.77
2022-10-09T06:21:52.873Z,8.45
2022-10-09T06:24:27.894Z,7.78
2022-10-09T06:26:56.697Z,7.13
2022-10-09T06:29:23.539Z,6.70
2022-10-09T06:31:50.109Z,6.15
2022-10-09T06:34:16.822Z,6.53
2022-10-09T06:36:43.521Z,6.95
2022-10-09T06:39:10.304Z,6.35
2022-10-09T06:41:36.857Z,5.53
2022-10-09T06:44:05.319Z,4.95
2022-10-09T06:49:01.432Z,4.65
2022-10-09T06:51:28.824Z,5.47
2022-10-09T06:53:58.149Z,5.75
2022-10-09T06:56:26.717Z,5.28
2022-10-09T07:01:40.121Z,5.57
2022-10-09T07:04:12.869Z,6.28
2022-10-09T07:06:46.545Z,6.22
2022-10-09T07:09:14.246Z,6.93
2022-10-09T07:11:43.463Z,5.70
2022-10-09T07:16:54.105Z,6.38
2022-10-09T07:19:21.735Z,6.40
2022-10-09T07:21:49.608Z,6.40
2022-10-09T07:24:17.379Z,7.10
2022-10-09T07:26:45.603Z,6.88
2022-10-09T07:29:14.112Z,6.57
2022-10-09T07:31:40.621Z,6.10
2022-10-09T07:36:48.311Z,6.22
2022-10-09T07:39:14.876Z,5.93
2022-10-09T07:41:41.750Z,6.28
2022-10-09T07:46:58.003Z,6.15
2022-10-09T07:52:05.047Z,6.15
2022-10-09T07:59:56.062Z,5.78
2022-10-09T08:02:22.652Z,6.07
2022-10-09T08:07:37.388Z,5.30
2022-10-09T08:10:13.387Z,4.85
2022-10-09T08:12:48.703Z,5.30
2022-10-09T08:15:15.525Z,4.90
2022-10-09T08:17:42.054Z,4.60
2022-10-09T08:22:50.452Z,5.70
2022-10-09T08:25:17.267Z,4.85
2022-10-09T08:27:53.317Z,4.85
2022-10-09T08:30:27.820Z,4.95
2022-10-09T08:32:54.299Z,5.55
2022-10-09T08:35:20.882Z,4.97
2022-10-09T08:41:16.987Z,4.88
2022-10-09T08:43:46.630Z,4.47
2022-10-09T08:46:20.852Z,3.97
2022-10-09T08:48:48.622Z,4.47
2022-10-09T08:51:24.506Z,4.50
2022-10-09T08:53:59.225Z,4.82
2022-10-09T08:56:26.679Z,5.15
2022-10-09T08:58:53.900Z,4.45
2022-10-09T09:01:30.379Z,4.10
2022-10-09T09:04:33.238Z,4.60
2022-10-09T09:07:03.392Z,4.63
2022-10-09T09:09:55.187Z,4.68
2022-10-09T09:12:48.339Z,4.90
2022-10-09T09:16:12.381Z,3.40
2022-10-09T09:18:47.569Z,3.20
2022-10-09T09:21:22.777Z,3.50
2022-10-09T09:23:50.144Z,3.10
2022-10-09T09:26:20.699Z,3.05
2022-10-09T09:28:50.599Z,3.58
2022-10-09T09:31:26.493Z,3.47
2022-10-09T09:34:14.206Z,3.38
2022-10-09T09:36:53.064Z,3.40
2022-10-09T09:42:14.823Z,2.70
2022-10-09T09:45:00.456Z,2.90
2022-10-09T09:47:33.799Z,2.50
2022-10-09T09:50:02.251Z,3.35
2022-10-09T09:52:31.256Z,2.72
2022-10-09T09:54:58.639Z,2.47
2022-10-09T10:00:22.055Z,2.28
2022-10-09T10:05:35.799Z,2.38
2022-10-09T10:08:15.784Z,2.53
2022-10-09T10:10:46.480Z,2.53
2022-10-09T10:13:16.621Z,2.70
2022-10-09T10:15:56.697Z,2.67
2022-10-09T10:18:25.176Z,2.22
2022-10-09T10:20:57.049Z,2.50
2022-10-09T10:23:33.270Z,3.10
2022-10-09T10:26:03.548Z,2.50
2022-10-09T10:28:45.994Z,2.85
2022-10-09T10:31:18.665Z,2.83
2022-10-09T10:33:50.178Z,2.97
2022-10-09T10:36:17.030Z,2.88
2022-10-09T10:38:54.801Z,2.72
2022-10-09T10:41:26.483Z,3.20
2022-10-09T10:44:34.775Z,2.88
2022-10-09T10:47:07.204Z,3.65
2022-10-09T10:52:40.768Z,3.22
2022-10-09T10:55:26.788Z,3.17
2022-10-09T10:58:15.290Z,2.70
2022-10-09T11:00:47.019Z,2.45
2022-10-09T11:03:34.466Z,2.92
2022-10-09T11:06:14.722Z,2.85
2022-10-09T11:08:50.396Z,3.20
2022-10-09T11:14:37.090Z,2.47
2022-10-09T11:17:18.856Z,2.50
2022-10-09T11:19:56.452Z,2.30
2022-10-09T11:22:32.889Z,2.67
2022-10-09T11:28:09.673Z,2.50
2022-10-09T11:30:50.294Z,2.67
2022-10-09T11:33:39.220Z,2.70
2022-10-09T11:36:12.236Z,2.85
2022-10-09T11:38:44.526Z,2.72
2022-10-09T11:41:11.880Z,2.35
2022-10-09T11:46:41.602Z,3.15
2022-10-09T11:49:16.156Z,2.00
2022-10-09T11:52:03.639Z,1.98
2022-10-09T11:54:41.629Z,2.28
2022-10-09T11:57:15.604Z,2.60
2022-10-09T11:59:42.761Z,3.03
2022-10-09T12:02:39.346Z,2.90
2022-10-09T12:05:32.434Z,2.83
2022-10-09T12:08:19.193Z,2.15
2022-10-09T12:10:53.362Z,2.28
2022-10-09T12:13:39.818Z,2.00
2022-10-09T12:16:08.338Z,2.00
2022-10-09T12:18:38.626Z,1.98
2022-10-09T12:21:15.874Z,1.80
2022-10-09T12:23:42.571Z,2.17
2022-10-09T12:29:01.554Z,1.98
2022-10-09T12:31:32.444Z,2.10
2022-10-09T12:34:13.302Z,1.95
2022-10-09T12:36:39.766Z,2.28
2022-10-09T12:39:23.738Z,2.50
2022-10-09T12:41:52.735Z,2.00
2022-10-09T12:44:43.563Z,2.50
2022-10-09T12:47:23.683Z,2.60
2022-10-09T12:50:15.720Z,2.85
2022-10-09T12:52:50.995Z,2.47
2022-10-09T12:58:16.190Z,2.35
2022-10-09T13:00:43.010Z,2.65
2022-10-09T13:03:36.343Z,2.85
2022-10-09T13:06:07.421Z,2.20
2022-10-09T13:08:42.776Z,2.88
2022-10-09T13:11:13.115Z,2.28
2022-10-09T13:13:40.165Z,2.75
2022-10-09T13:16:09.648Z,2.42
2022-10-09T13:21:24.959Z,3.08
2022-10-09T13:23:51.583Z,2.00
2022-10-09T13:26:38.752Z,2.05
2022-10-09T13:29:14.027Z,3.83
2022-10-09T13:34:25.432Z,1.88
2022-10-09T13:36:51.978Z,2.05
2022-10-09T13:39:18.618Z,2.00
2022-10-09T13:41:46.274Z,1.90
2022-10-09T13:44:12.818Z,3.30
2022-10-09T13:46:39.378Z,2.22
2022-10-09T13:51:46.353Z,2.65
2022-10-09T13:54:12.805Z,2.38
2022-10-09T13:56:39.345Z,2.00
2022-10-09T14:01:46.858Z,2.13
2022-10-09T14:04:13.422Z,2.58
2022-10-09T14:06:41.783Z,2.90
2022-10-09T14:09:12.161Z,2.65
2022-10-09T14:14:33.378Z,2.30
2022-10-09T14:16:59.881Z,2.20
2022-10-09T14:19:27.949Z,2.75
2022-10-09T14:21:55.432Z,2.33
2022-10-09T14:24:22.001Z,2.25
2022-10-09T14:29:29.465Z,2.47
2022-10-09T14:31:55.932Z,2.63
2022-10-09T14:34:22.453Z,3.15
2022-10-09T14:36:49.143Z,3.08
2022-10-09T14:39:16.145Z,2.53
2022-10-09T14:41:42.624Z,2.55
2022-10-09T14:44:09.271Z,3.17
2022-10-09T14:46:37.775Z,2.55
2022-10-09T14:49:07.581Z,2.92
2022-10-09T14:51:37.059Z,3.90
2022-10-09T14:54:04.462Z,3.00
2022-10-09T14:56:34.884Z,3.00
2022-10-09T14:59:01.453Z,2.70
2022-10-09T15:01:35.015Z,2.90
2022-10-09T15:04:02.862Z,3.22
2022-10-09T15:09:03.036Z,3.17
2022-10-09T15:14:19.080Z,2.70
2022-10-09T15:16:45.621Z,3.10
2022-10-09T15:19:20.047Z,2.80
2022-10-09T15:21:46.758Z,3.08
2022-10-09T15:24:17.005Z,2.70
2022-10-09T15:32:04.418Z,2.60
2022-10-09T15:34:31.056Z,2.88
2022-10-09T15:42:18.937Z,2.78
2022-10-09T15:44:45.408Z,3.08
2022-10-09T15:47:16.447Z,2.53
2022-10-09T15:49:44.638Z,2.50
2022-10-09T15:54:54.990Z,2.70
2022-10-09T16:00:02.135Z,2.70
2022-10-09T16:02:28.974Z,2.60
2022-10-09T16:07:36.280Z,3.80
2022-10-09T16:10:02.751Z,2.83
2022-10-09T16:15:14.344Z,2.42
2022-10-09T16:17:40.836Z,2.60
2022-10-09T16:20:07.951Z,3.03
2022-10-09T16:22:34.436Z,2.55
2022-10-09T16:25:00.984Z,2.85
2022-10-09T16:27:27.566Z,2.80
2022-10-09T16:29:55.082Z,3.47
2022-10-09T16:32:22.023Z,3.33
2022-10-09T16:34:49.898Z,4.57
2022-10-09T16:39:57.179Z,3.22
2022-10-09T16:42:23.677Z,3.08
2022-10-09T16:44:51.489Z,2.83
2022-10-09T16:47:18.154Z,2.97
2022-10-09T16:49:44.846Z,3.35
2022-10-09T16:52:11.409Z,2.70
2022-10-09T16:54:39.351Z,2.80
2022-10-09T16:57:07.128Z,3.40
2022-10-09T16:59:33.812Z,4.07
2022-10-09T17:02:02.209Z,3.63
2022-10-09T17:04:28.683Z,3.78
2022-10-09T17:07:03.070Z,3.75
2022-10-09T17:09:30.237Z,3.45
2022-10-09T17:11:57.129Z,3.25
2022-10-09T17:14:27.400Z,3.33
2022-10-09T17:16:54.528Z,2.92
2022-10-09T17:19:21.092Z,2.80
2022-10-09T17:24:28.450Z,2.92
2022-10-09T17:26:55.207Z,3.22
2022-10-09T17:29:22.243Z,3.17
2022-10-09T17:34:45.710Z,3.65
2022-10-09T17:37:13.670Z,3.10
2022-10-09T17:40:49.377Z,3.30
2022-10-09T17:46:09.618Z,3.40
2022-10-09T17:48:38.286Z,3.83
2022-10-09T17:51:12.885Z,3.55
2022-10-09T17:56:20.402Z,3.35
2022-10-09T17:59:01.987Z,3.03
2022-10-09T18:04:15.078Z,3.65
2022-10-09T18:12:03.238Z,4.50
2022-10-09T18:19:59.173Z,4.68
2022-10-09T18:22:25.830Z,4.38
2022-10-09T18:24:54.447Z,5.05
2022-10-09T18:27:21.011Z,4.82
2022-10-09T18:29:55.690Z,4.80
2022-10-09T18:32:22.266Z,4.53
2022-10-09T18:34:48.976Z,4.80
2022-10-09T18:40:09.886Z,4.32
2022-10-09T18:45:25.372Z,4.80
2022-10-09T18:50:32.689Z,4.93
2022-10-09T18:58:22.260Z,4.82
2022-10-09T19:00:50.726Z,4.80
2022-10-09T19:03:17.449Z,5.32
2022-10-09T19:05:44.934Z,4.85
2022-10-09T19:08:11.850Z,4.32
2022-10-09T19:10:38.367Z,5.43
2022-10-09T19:13:04.866Z,5.13
2022-10-09T19:15:31.493Z,4.75
2022-10-09T19:17:58.040Z,6.15
2022-10-09T19:20:24.593Z,5.47
2022-10-09T19:22:52.166Z,4.80
2022-10-09T19:25:26.390Z,4.57
2022-10-09T19:27:53.061Z,4.80
2022-10-09T19:30:19.712Z,5.13
2022-10-09T19:32:48.323Z,5.70
2022-10-09T19:37:55.721Z,5.38
2022-10-09T19:40:35.145Z,5.32
2022-10-09T19:43:09.563Z,5.88
2022-10-09T19:45:36.642Z,5.87
2022-10-09T19:48:03.308Z,5.72
2022-10-09T19:50:30.175Z,4.68
2022-10-09T19:53:04.520Z,5.03
2022-10-09T19:55:33.140Z,5.13
2022-10-09T20:00:43.137Z,5.22
2022-10-09T20:03:17.635Z,5.00
2022-10-09T20:08:24.649Z,4.75
2022-10-09T20:10:51.132Z,4.88
2022-10-09T20:13:17.621Z,4.75
2022-10-09T20:18:24.478Z,5.00
2022-10-09T20:20:50.995Z,4.75
2022-10-09T20:23:17.495Z,4.70
2022-10-09T20:25:50.161Z,3.90
2022-10-09T20:28:16.666Z,4.20
2022-10-09T20:33:23.829Z,3.92
2022-10-09T20:35:54.091Z,4.30
2022-10-09T20:38:25.537Z,4.22
2022-10-09T20:40:52.547Z,4.40
2022-10-09T20:43:19.458Z,4.18
2022-10-09T20:45:46.405Z,4.28
2022-10-09T20:50:53.398Z,4.55
2022-10-09T20:53:19.972Z,5.75
2022-10-09T20:55:46.479Z,4.30
2022-10-09T20:58:12.947Z,4.45
2022-10-09T21:00:43.415Z,4.60
2022-10-09T21:03:12.452Z,4.50
2022-10-09T21:05:43.367Z,5.95
2022-10-09T21:08:10.341Z,5.72
2022-10-09T21:10:46.032Z,5.00
2022-10-09T21:13:12.717Z,5.03
2022-10-09T21:15:43.802Z,5.43
2022-10-09T21:18:11.149Z,5.40
2022-10-09T21:20:39.453Z,4.90
2022-10-09T21:23:05.958Z,5.15
2022-10-09T21:25:40.503Z,5.78
2022-10-09T21:28:07.029Z,5.32
2022-10-09T21:33:19.079Z,5.15
2022-10-09T21:35:48.350Z,6.13
2022-10-09T21:38:17.256Z,5.18
2022-10-09T21:40:44.866Z,5.80
2022-10-09T21:43:11.379Z,5.45
2022-10-09T21:51:00.593Z,5.32
2022-10-09T21:55:52.569Z,4.90
2022-10-09T22:03:55.239Z,5.55
2022-10-09T22:09:05.145Z,5.18
2022-10-09T22:14:20.656Z,4.75
2022-10-09T22:19:36.514Z,4.97
2022-10-09T22:22:03.004Z,4.88
2022-10-09T22:24:30.331Z,4.80
2022-10-09T22:26:57.421Z,5.55
2022-10-09T22:29:25.067Z,5.60
2022-10-09T22:31:51.663Z,6.25
2022-10-09T22:34:18.649Z,5.28
2022-10-09T22:39:26.625Z,5.43
2022-10-09T22:41:54.152Z,5.78
2022-10-09T22:44:20.979Z,5.80
2022-10-09T22:47:00.441Z,6.45
2022-10-09T22:49:27.509Z,6.43
2022-10-09T22:51:54.020Z,6.32
2022-10-09T22:54:32.260Z,6.40
2022-10-09T22:57:12.089Z,5.53
2022-10-09T22:59:38.606Z,6.28
2022-10-09T23:02:17.014Z,5.90
2022-10-09T23:07:33.523Z,6.32
2022-10-09T23:10:00.184Z,7.00
2022-10-09T23:12:26.676Z,6.30
2022-10-09T23:14:53.400Z,6.75
2022-10-09T23:17:23.766Z,6.03
2022-10-09T23:20:00.102Z,5.72
2022-10-09T23:22:35.292Z,6.57
2022-10-09T23:27:29.346Z,6.97
2022-10-09T23:29:55.795Z,6.70
2022-10-09T23:32:22.263Z,6.68
2022-10-09T23:37:29.662Z,6.90
2022-10-09T23:39:56.168Z,6.57
2022-10-09T23:45:03.656Z,7.32
2022-10-09T23:47:38.122Z,7.82
2022-10-09T23:50:06.358Z,7.43
2022-10-09T23:52:37.177Z,6.60
2022-10-09T23:55:03.943Z,7.43
2022-10-09T23:57:30.492Z,7.00
2022-10-09T23:59:56.964Z,7.18
